sensor_id;sensor_type;location;lat;lon;timestamp;P1;durP1;ratioP1;P2;durP2;ratioP2
4268;SDS011;2148;48.554;7.834;2022-11-20T00:01:42;6.83;;;6.13;;
4268;SDS011;2148;48.554;7.834;2022-11-20T00:04:08;7.43;;;6.57;;
4268;SDS011;2148;48.554;7.834;2022-11-20T00:06:33;7.23;;;6.00;;
4268;SDS011;2148;48.554;7.834;2022-11-20T00:08:59;7.43;;;6.67;;
4268;SDS011;2148;48.554;7.834;2022-11-20T00:11:25;6.57;;;5.97;;
4268;SDS011;2148;48.554;7.834;2022-11-20T00:13:52;7.17;;;5.70;;
4268;SDS011;2148;48.554;7.834;2022-11-20T00:16:20;6.43;;;5.83;;
4268;SDS011;2148;48.554;7.834;2022-11-20T00:18:47;6.83;;;5.70;;
4268;SDS011;2148;48.554;7.834;2022-11-20T00:21:16;8.40;;;5.70;;
4268;SDS011;2148;48.554;7.834;2022-11-20T00:23:42;6.93;;;5.43;;
4268;SDS011;2148;48.554;7.834;2022-11-20T00:26:08;6.43;;;5.73;;
4268;SDS011;2148;48.554;7.834;2022-11-20T00:28:35;6.93;;;6.10;;
4268;SDS011;2148;48.554;7.834;2022-11-20T00:31:05;7.63;;;5.70;;
4268;SDS011;2148;48.554;7.834;2022-11-20T00:33:31;7.10;;;5.60;;
4268;SDS011;2148;48.554;7.834;2022-11-20T00:36:04;6.07;;;5.17;;
4268;SDS011;2148;48.554;7.834;2022-11-20T00:38:34;6.07;;;5.47;;
4268;SDS011;2148;48.554;7.834;2022-11-20T00:41:00;5.73;;;5.10;;
4268;SDS011;2148;48.554;7.834;2022-11-20T00:43:27;6.50;;;5.57;;
4268;SDS011;2148;48.554;7.834;2022-11-20T00:45:56;9.00;;;5.97;;
4268;SDS011;2148;48.554;7.834;2022-11-20T00:48:25;8.50;;;5.97;;
4268;SDS011;2148;48.554;7.834;2022-11-20T00:50:51;5.93;;;5.33;;
4268;SDS011;2148;48.554;7.834;2022-11-20T00:53:17;5.70;;;5.07;;
4268;SDS011;2148;48.554;7.834;2022-11-20T00:55:42;6.87;;;5.53;;
4268;SDS011;2148;48.554;7.834;2022-11-20T00:58:07;7.47;;;6.47;;
4268;SDS011;2148;48.554;7.834;2022-11-20T01:00:32;6.00;;;5.40;;
4268;SDS011;2148;48.554;7.834;2022-11-20T01:02:58;6.73;;;6.03;;
4268;SDS011;2148;48.554;7.834;2022-11-20T01:05:23;8.63;;;6.00;;
4268;SDS011;2148;48.554;7.834;2022-11-20T01:07:48;8.90;;;6.20;;
4268;SDS011;2148;48.554;7.834;2022-11-20T01:10:14;6.80;;;6.07;;
4268;SDS011;2148;48.554;7.834;2022-11-20T01:12:39;6.50;;;5.90;;
4268;SDS011;2148;48.554;7.834;2022-11-20T01:15:04;5.97;;;5.37;;
4268;SDS011;2148;48.554;7.834;2022-11-20T01:17:30;5.97;;;5.03;;
4268;SDS011;2148;48.554;7.834;2022-11-20T01:19:56;7.60;;;5.10;;
4268;SDS011;2148;48.554;7.834;2022-11-20T01:22:21;6.10;;;5.47;;
4268;SDS011;2148;48.554;7.834;2022-11-20T01:24:46;5.80;;;5.20;;
4268;SDS011;2148;48.554;7.834;2022-11-20T01:27:12;7.83;;;6.00;;
4268;SDS011;2148;48.554;7.834;2022-11-20T01:29:37;6.00;;;5.40;;
4268;SDS011;2148;48.554;7.834;2022-11-20T01:32:02;6.67;;;5.70;;
4268;SDS011;2148;48.554;7.834;2022-11-20T01:34:27;6.03;;;5.50;;
4268;SDS011;2148;48.554;7.834;2022-11-20T01:36:53;6.73;;;4.97;;
4268;SDS011;2148;48.554;7.834;2022-11-20T01:39:19;7.00;;;5.53;;
4268;SDS011;2148;48.554;7.834;2022-11-20T01:41:49;6.17;;;5.57;;
4268;SDS011;2148;48.554;7.834;2022-11-20T01:44:54;6.40;;;4.23;;
4268;SDS011;2148;48.554;7.834;2022-11-20T01:47:29;6.10;;;5.50;;
4268;SDS011;2148;48.554;7.834;2022-11-20T01:50:05;6.07;;;5.47;;
4268;SDS011;2148;48.554;7.834;2022-11-20T01:52:36;6.63;;;5.40;;
4268;SDS011;2148;48.554;7.834;2022-11-20T01:55:06;6.13;;;5.50;;
4268;SDS011;2148;48.554;7.834;2022-11-20T01:57:34;6.27;;;5.63;;
4268;SDS011;2148;48.554;7.834;2022-11-20T02:00:04;6.13;;;5.50;;
4268;SDS011;2148;48.554;7.834;2022-11-20T02:02:35;6.40;;;5.47;;
4268;SDS011;2148;48.554;7.834;2022-11-20T02:05:03;5.87;;;5.23;;
4268;SDS011;2148;48.554;7.834;2022-11-20T02:07:44;5.83;;;5.27;;
4268;SDS011;2148;48.554;7.834;2022-11-20T02:10:11;6.80;;;4.90;;
4268;SDS011;2148;48.554;7.834;2022-11-20T02:12:36;6.53;;;5.77;;
4268;SDS011;2148;48.554;7.834;2022-11-20T02:15:20;5.83;;;5.23;;
4268;SDS011;2148;48.554;7.834;2022-11-20T02:17:45;6.10;;;4.90;;
4268;SDS011;2148;48.554;7.834;2022-11-20T02:20:10;5.23;;;4.63;;
4268;SDS011;2148;48.554;7.834;2022-11-20T02:22:38;6.37;;;4.77;;
4268;SDS011;2148;48.554;7.834;2022-11-20T02:25:13;5.27;;;4.77;;
4268;SDS011;2148;48.554;7.834;2022-11-20T02:27:39;6.00;;;4.80;;
4268;SDS011;2148;48.554;7.834;2022-11-20T02:30:05;7.43;;;4.80;;
4268;SDS011;2148;48.554;7.834;2022-11-20T02:32:36;7.37;;;5.93;;
4268;SDS011;2148;48.554;7.834;2022-11-20T02:37:48;5.13;;;4.60;;
4268;SDS011;2148;48.554;7.834;2022-11-20T02:40:16;6.10;;;5.50;;
4268;SDS011;2148;48.554;7.834;2022-11-20T02:42:41;5.33;;;4.73;;
4268;SDS011;2148;48.554;7.834;2022-11-20T02:45:06;6.07;;;4.80;;
4268;SDS011;2148;48.554;7.834;2022-11-20T02:47:32;7.20;;;4.60;;
4268;SDS011;2148;48.554;7.834;2022-11-20T02:49:58;5.17;;;4.67;;
4268;SDS011;2148;48.554;7.834;2022-11-20T02:52:23;5.03;;;4.53;;
4268;SDS011;2148;48.554;7.834;2022-11-20T02:54:48;5.20;;;4.70;;
4268;SDS011;2148;48.554;7.834;2022-11-20T02:57:14;6.60;;;4.83;;
4268;SDS011;2148;48.554;7.834;2022-11-20T02:59:39;6.00;;;5.17;;
4268;SDS011;2148;48.554;7.834;2022-11-20T03:02:04;5.30;;;4.43;;
4268;SDS011;2148;48.554;7.834;2022-11-20T03:04:29;5.30;;;4.80;;
4268;SDS011;2148;48.554;7.834;2022-11-20T03:06:55;6.63;;;4.83;;
4268;SDS011;2148;48.554;7.834;2022-11-20T03:09:20;6.07;;;4.93;;
4268;SDS011;2148;48.554;7.834;2022-11-20T03:11:46;6.00;;;5.47;;
4268;SDS011;2148;48.554;7.834;2022-11-20T03:14:11;7.87;;;5.40;;
4268;SDS011;2148;48.554;7.834;2022-11-20T03:16:36;7.40;;;4.60;;
4268;SDS011;2148;48.554;7.834;2022-11-20T03:19:02;8.40;;;4.70;;
4268;SDS011;2148;48.554;7.834;2022-11-20T03:21:27;5.17;;;4.67;;
4268;SDS011;2148;48.554;7.834;2022-11-20T03:23:53;5.90;;;5.10;;
4268;SDS011;2148;48.554;7.834;2022-11-20T03:28:49;5.57;;;4.97;;
4268;SDS011;2148;48.554;7.834;2022-11-20T03:31:16;5.77;;;5.17;;
4268;SDS011;2148;48.554;7.834;2022-11-20T03:33:43;5.80;;;4.80;;
4268;SDS011;2148;48.554;7.834;2022-11-20T03:36:10;5.57;;;4.67;;
4268;SDS011;2148;48.554;7.834;2022-11-20T03:38:36;4.83;;;4.33;;
4268;SDS011;2148;48.554;7.834;2022-11-20T03:41:03;6.20;;;4.53;;
4268;SDS011;2148;48.554;7.834;2022-11-20T03:43:30;8.00;;;5.33;;
4268;SDS011;2148;48.554;7.834;2022-11-20T03:45:55;6.33;;;4.80;;
4268;SDS011;2148;48.554;7.834;2022-11-20T03:48:21;5.73;;;4.23;;
4268;SDS011;2148;48.554;7.834;2022-11-20T03:50:46;5.90;;;4.80;;
4268;SDS011;2148;48.554;7.834;2022-11-20T03:53:14;4.70;;;4.27;;
4268;SDS011;2148;48.554;7.834;2022-11-20T03:55:40;5.47;;;4.97;;
4268;SDS011;2148;48.554;7.834;2022-11-20T03:58:05;6.53;;;4.30;;
4268;SDS011;2148;48.554;7.834;2022-11-20T04:00:31;6.03;;;5.00;;
4268;SDS011;2148;48.554;7.834;2022-11-20T04:03:00;5.43;;;4.87;;
4268;SDS011;2148;48.554;7.834;2022-11-20T04:05:26;6.83;;;4.90;;
4268;SDS011;2148;48.554;7.834;2022-11-20T04:07:51;4.73;;;4.33;;
4268;SDS011;2148;48.554;7.834;2022-11-20T04:10:17;4.90;;;4.27;;
4268;SDS011;2148;48.554;7.834;2022-11-20T04:12:42;5.10;;;4.60;;
4268;SDS011;2148;48.554;7.834;2022-11-20T04:15:08;5.83;;;4.53;;
4268;SDS011;2148;48.554;7.834;2022-11-20T04:17:33;4.97;;;4.40;;
4268;SDS011;2148;48.554;7.834;2022-11-20T04:19:58;5.97;;;4.50;;
4268;SDS011;2148;48.554;7.834;2022-11-20T04:22:24;5.10;;;4.60;;
4268;SDS011;2148;48.554;7.834;2022-11-20T04:24:49;5.50;;;4.57;;
4268;SDS011;2148;48.554;7.834;2022-11-20T04:27:14;4.80;;;4.23;;
4268;SDS011;2148;48.554;7.834;2022-11-20T04:29:39;4.97;;;4.47;;
4268;SDS011;2148;48.554;7.834;2022-11-20T04:32:05;4.80;;;4.37;;
4268;SDS011;2148;48.554;7.834;2022-11-20T04:34:30;5.87;;;4.13;;
4268;SDS011;2148;48.554;7.834;2022-11-20T04:36:55;6.00;;;4.30;;
4268;SDS011;2148;48.554;7.834;2022-11-20T04:39:20;5.97;;;4.33;;
4268;SDS011;2148;48.554;7.834;2022-11-20T04:41:46;5.17;;;4.37;;
4268;SDS011;2148;48.554;7.834;2022-11-20T04:44:11;4.27;;;3.80;;
4268;SDS011;2148;48.554;7.834;2022-11-20T04:46:38;3.93;;;3.53;;
4268;SDS011;2148;48.554;7.834;2022-11-20T04:49:04;4.03;;;3.63;;
4268;SDS011;2148;48.554;7.834;2022-11-20T04:51:30;4.13;;;3.73;;
4268;SDS011;2148;48.554;7.834;2022-11-20T04:53:55;4.00;;;3.60;;
4268;SDS011;2148;48.554;7.834;2022-11-20T04:56:21;5.30;;;3.67;;
4268;SDS011;2148;48.554;7.834;2022-11-20T04:58:46;4.50;;;4.10;;
4268;SDS011;2148;48.554;7.834;2022-11-20T05:01:16;5.67;;;4.27;;
4268;SDS011;2148;48.554;7.834;2022-11-20T05:03:45;3.43;;;3.13;;
4268;SDS011;2148;48.554;7.834;2022-11-20T05:06:12;6.30;;;3.50;;
4268;SDS011;2148;48.554;7.834;2022-11-20T05:08:38;4.63;;;3.93;;
4268;SDS011;2148;48.554;7.834;2022-11-20T05:11:04;5.20;;;4.07;;
4268;SDS011;2148;48.554;7.834;2022-11-20T05:13:31;4.67;;;3.50;;
4268;SDS011;2148;48.554;7.834;2022-11-20T05:16:00;3.40;;;3.10;;
4268;SDS011;2148;48.554;7.834;2022-11-20T05:18:29;4.13;;;3.40;;
4268;SDS011;2148;48.554;7.834;2022-11-20T05:20:55;4.00;;;3.57;;
4268;SDS011;2148;48.554;7.834;2022-11-20T05:23:21;3.20;;;2.90;;
4268;SDS011;2148;48.554;7.834;2022-11-20T05:25:46;4.67;;;3.30;;
4268;SDS011;2148;48.554;7.834;2022-11-20T05:28:11;3.93;;;3.40;;
4268;SDS011;2148;48.554;7.834;2022-11-20T05:30:37;4.93;;;3.30;;
4268;SDS011;2148;48.554;7.834;2022-11-20T05:33:02;3.73;;;3.43;;
4268;SDS011;2148;48.554;7.834;2022-11-20T05:35:27;3.50;;;3.20;;
4268;SDS011;2148;48.554;7.834;2022-11-20T05:37:52;4.60;;;3.30;;
4268;SDS011;2148;48.554;7.834;2022-11-20T05:40:18;4.40;;;4.00;;
4268;SDS011;2148;48.554;7.834;2022-11-20T05:42:43;3.53;;;3.23;;
4268;SDS011;2148;48.554;7.834;2022-11-20T05:45:08;4.17;;;3.73;;
4268;SDS011;2148;48.554;7.834;2022-11-20T05:47:34;3.97;;;3.57;;
4268;SDS011;2148;48.554;7.834;2022-11-20T05:50:00;4.10;;;3.60;;
4268;SDS011;2148;48.554;7.834;2022-11-20T05:52:28;4.43;;;3.70;;
4268;SDS011;2148;48.554;7.834;2022-11-20T05:54:54;3.90;;;3.50;;
4268;SDS011;2148;48.554;7.834;2022-11-20T05:57:19;4.77;;;3.77;;
4268;SDS011;2148;48.554;7.834;2022-11-20T05:59:44;3.83;;;3.53;;
4268;SDS011;2148;48.554;7.834;2022-11-20T06:02:10;6.87;;;4.00;;
4268;SDS011;2148;48.554;7.834;2022-11-20T06:04:35;4.13;;;3.67;;
4268;SDS011;2148;48.554;7.834;2022-11-20T06:07:00;3.40;;;3.10;;
4268;SDS011;2148;48.554;7.834;2022-11-20T06:09:25;4.50;;;4.10;;
4268;SDS011;2148;48.554;7.834;2022-11-20T06:11:51;3.57;;;3.27;;
4268;SDS011;2148;48.554;7.834;2022-11-20T06:14:16;4.57;;;4.17;;
4268;SDS011;2148;48.554;7.834;2022-11-20T06:16:41;4.03;;;3.73;;
4268;SDS011;2148;48.554;7.834;2022-11-20T06:19:06;5.67;;;5.03;;
4268;SDS011;2148;48.554;7.834;2022-11-20T06:21:32;4.43;;;3.90;;
4268;SDS011;2148;48.554;7.834;2022-11-20T06:23:57;3.13;;;2.83;;
4268;SDS011;2148;48.554;7.834;2022-11-20T06:26:23;5.07;;;4.07;;
4268;SDS011;2148;48.554;7.834;2022-11-20T06:28:50;4.10;;;3.60;;
4268;SDS011;2148;48.554;7.834;2022-11-20T06:31:17;4.30;;;3.90;;
4268;SDS011;2148;48.554;7.834;2022-11-20T06:33:43;4.20;;;3.77;;
4268;SDS011;2148;48.554;7.834;2022-11-20T06:36:09;3.57;;;3.27;;
4268;SDS011;2148;48.554;7.834;2022-11-20T06:38:36;5.07;;;4.57;;
4268;SDS011;2148;48.554;7.834;2022-11-20T06:41:03;4.50;;;4.10;;
4268;SDS011;2148;48.554;7.834;2022-11-20T06:43:29;4.93;;;3.70;;
4268;SDS011;2148;48.554;7.834;2022-11-20T06:45:55;4.57;;;4.17;;
4268;SDS011;2148;48.554;7.834;2022-11-20T06:48:21;5.63;;;4.00;;
4268;SDS011;2148;48.554;7.834;2022-11-20T06:50:48;4.80;;;4.27;;
4268;SDS011;2148;48.554;7.834;2022-11-20T06:53:13;4.90;;;4.23;;
4268;SDS011;2148;48.554;7.834;2022-11-20T06:55:41;5.00;;;3.80;;
4268;SDS011;2148;48.554;7.834;2022-11-20T06:58:08;4.17;;;3.77;;
4268;SDS011;2148;48.554;7.834;2022-11-20T07:00:33;4.13;;;3.70;;
4268;SDS011;2148;48.554;7.834;2022-11-20T07:03:02;4.50;;;4.10;;
4268;SDS011;2148;48.554;7.834;2022-11-20T07:05:28;5.13;;;3.83;;
4268;SDS011;2148;48.554;7.834;2022-11-20T07:07:55;4.20;;;3.77;;
4268;SDS011;2148;48.554;7.834;2022-11-20T07:10:21;5.53;;;3.73;;
4268;SDS011;2148;48.554;7.834;2022-11-20T07:12:49;4.20;;;3.80;;
4268;SDS011;2148;48.554;7.834;2022-11-20T07:15:15;4.30;;;3.90;;
4268;SDS011;2148;48.554;7.834;2022-11-20T07:17:41;5.37;;;4.13;;
4268;SDS011;2148;48.554;7.834;2022-11-20T07:20:06;5.67;;;3.53;;
4268;SDS011;2148;48.554;7.834;2022-11-20T07:22:32;4.07;;;2.77;;
4268;SDS011;2148;48.554;7.834;2022-11-20T07:24:57;4.23;;;3.30;;
4268;SDS011;2148;48.554;7.834;2022-11-20T07:27:22;4.10;;;3.30;;
4268;SDS011;2148;48.554;7.834;2022-11-20T07:29:47;3.60;;;3.10;;
4268;SDS011;2148;48.554;7.834;2022-11-20T07:32:13;3.00;;;2.80;;
4268;SDS011;2148;48.554;7.834;2022-11-20T07:34:38;3.67;;;2.90;;
4268;SDS011;2148;48.554;7.834;2022-11-20T07:37:03;3.57;;;2.87;;
4268;SDS011;2148;48.554;7.834;2022-11-20T07:39:28;4.20;;;3.40;;
4268;SDS011;2148;48.554;7.834;2022-11-20T07:41:54;4.57;;;3.90;;
4268;SDS011;2148;48.554;7.834;2022-11-20T07:44:19;3.83;;;3.43;;
4268;SDS011;2148;48.554;7.834;2022-11-20T07:46:44;7.90;;;4.27;;
4268;SDS011;2148;48.554;7.834;2022-11-20T07:49:09;6.93;;;5.60;;
4268;SDS011;2148;48.554;7.834;2022-11-20T07:51:35;4.13;;;3.77;;
4268;SDS011;2148;48.554;7.834;2022-11-20T07:54:00;3.87;;;3.57;;
4268;SDS011;2148;48.554;7.834;2022-11-20T07:56:25;3.00;;;2.80;;
4268;SDS011;2148;48.554;7.834;2022-11-20T07:58:51;3.07;;;2.77;;
4268;SDS011;2148;48.554;7.834;2022-11-20T08:01:16;2.70;;;2.50;;
4268;SDS011;2148;48.554;7.834;2022-11-20T08:03:41;4.10;;;2.80;;
4268;SDS011;2148;48.554;7.834;2022-11-20T08:06:07;3.70;;;3.37;;
4268;SDS011;2148;48.554;7.834;2022-11-20T08:08:32;2.90;;;2.70;;
4268;SDS011;2148;48.554;7.834;2022-11-20T08:10:58;2.97;;;2.77;;
4268;SDS011;2148;48.554;7.834;2022-11-20T08:13:43;2.90;;;2.60;;
4268;SDS011;2148;48.554;7.834;2022-11-20T08:16:27;2.90;;;2.70;;
4268;SDS011;2148;48.554;7.834;2022-11-20T08:18:52;2.63;;;2.43;;
4268;SDS011;2148;48.554;7.834;2022-11-20T08:21:17;2.93;;;2.67;;
4268;SDS011;2148;48.554;7.834;2022-11-20T08:23:42;3.83;;;2.67;;
4268;SDS011;2148;48.554;7.834;2022-11-20T08:26:08;3.87;;;2.67;;
4268;SDS011;2148;48.554;7.834;2022-11-20T08:28:33;3.30;;;2.67;;
4268;SDS011;2148;48.554;7.834;2022-11-20T08:30:59;3.10;;;2.77;;
4268;SDS011;2148;48.554;7.834;2022-11-20T08:33:25;2.93;;;2.70;;
4268;SDS011;2148;48.554;7.834;2022-11-20T08:35:50;3.83;;;2.77;;
4268;SDS011;2148;48.554;7.834;2022-11-20T08:38:16;3.03;;;2.83;;
4268;SDS011;2148;48.554;7.834;2022-11-20T08:40:41;3.83;;;3.17;;
4268;SDS011;2148;48.554;7.834;2022-11-20T08:43:26;3.27;;;2.97;;
4268;SDS011;2148;48.554;7.834;2022-11-20T08:45:51;3.63;;;3.07;;
4268;SDS011;2148;48.554;7.834;2022-11-20T08:48:16;3.03;;;2.73;;
4268;SDS011;2148;48.554;7.834;2022-11-20T08:50:42;3.27;;;2.97;;
4268;SDS011;2148;48.554;7.834;2022-11-20T08:53:07;3.13;;;2.90;;
4268;SDS011;2148;48.554;7.834;2022-11-20T08:55:32;2.90;;;2.70;;
4268;SDS011;2148;48.554;7.834;2022-11-20T08:58:03;3.73;;;2.93;;
4268;SDS011;2148;48.554;7.834;2022-11-20T09:00:29;3.30;;;3.00;;
4268;SDS011;2148;48.554;7.834;2022-11-20T09:02:54;3.23;;;2.93;;
4268;SDS011;2148;48.554;7.834;2022-11-20T09:05:19;3.23;;;2.80;;
4268;SDS011;2148;48.554;7.834;2022-11-20T09:07:45;3.50;;;3.20;;
4268;SDS011;2148;48.554;7.834;2022-11-20T09:10:10;4.13;;;3.03;;
4268;SDS011;2148;48.554;7.834;2022-11-20T09:12:35;3.43;;;3.07;;
4268;SDS011;2148;48.554;7.834;2022-11-20T09:15:01;3.40;;;3.10;;
4268;SDS011;2148;48.554;7.834;2022-11-20T09:17:26;4.23;;;3.00;;
4268;SDS011;2148;48.554;7.834;2022-11-20T09:19:51;3.33;;;3.00;;
4268;SDS011;2148;48.554;7.834;2022-11-20T09:22:16;3.20;;;3.00;;
4268;SDS011;2148;48.554;7.834;2022-11-20T09:24:41;3.17;;;2.87;;
4268;SDS011;2148;48.554;7.834;2022-11-20T09:27:07;5.30;;;3.87;;
4268;SDS011;2148;48.554;7.834;2022-11-20T09:29:33;3.83;;;3.40;;
4268;SDS011;2148;48.554;7.834;2022-11-20T09:31:58;3.83;;;3.50;;
4268;SDS011;2148;48.554;7.834;2022-11-20T09:34:24;4.03;;;3.63;;
4268;SDS011;2148;48.554;7.834;2022-11-20T09:36:50;4.30;;;3.60;;
4268;SDS011;2148;48.554;7.834;2022-11-20T09:39:15;6.13;;;4.17;;
4268;SDS011;2148;48.554;7.834;2022-11-20T09:44:51;3.77;;;3.40;;
4268;SDS011;2148;48.554;7.834;2022-11-20T09:47:47;4.17;;;3.33;;
4268;SDS011;2148;48.554;7.834;2022-11-20T09:50:25;4.10;;;2.80;;
4268;SDS011;2148;48.554;7.834;2022-11-20T09:56:00;4.93;;;3.50;;
4268;SDS011;2148;48.554;7.834;2022-11-20T09:58:29;3.80;;;3.33;;
4268;SDS011;2148;48.554;7.834;2022-11-20T10:01:03;3.60;;;3.30;;
4268;SDS011;2148;48.554;7.834;2022-11-20T10:04:17;3.90;;;3.50;;
4268;SDS011;2148;48.554;7.834;2022-11-20T10:06:53;3.47;;;3.17;;
4268;SDS011;2148;48.554;7.834;2022-11-20T10:09:40;4.00;;;3.50;;
4268;SDS011;2148;48.554;7.834;2022-11-20T10:12:18;4.00;;;2.97;;
4268;SDS011;2148;48.554;7.834;2022-11-20T10:14:54;4.23;;;3.23;;
4268;SDS011;2148;48.554;7.834;2022-11-20T10:20:30;4.03;;;2.97;;
4268;SDS011;2148;48.554;7.834;2022-11-20T10:26:09;3.53;;;2.57;;
4268;SDS011;2148;48.554;7.834;2022-11-20T10:29:11;4.37;;;3.13;;
4268;SDS011;2148;48.554;7.834;2022-11-20T10:31:45;2.80;;;2.60;;
4268;SDS011;2148;48.554;7.834;2022-11-20T10:34:17;5.97;;;3.37;;
4268;SDS011;2148;48.554;7.834;2022-11-20T10:36:55;3.23;;;2.57;;
4268;SDS011;2148;48.554;7.834;2022-11-20T10:39:33;3.60;;;2.70;;
4268;SDS011;2148;48.554;7.834;2022-11-20T10:42:00;3.30;;;2.40;;
4268;SDS011;2148;48.554;7.834;2022-11-20T10:44:26;3.10;;;2.53;;
4268;SDS011;2148;48.554;7.834;2022-11-20T10:47:13;3.63;;;2.37;;
4268;SDS011;2148;48.554;7.834;2022-11-20T10:49:39;3.63;;;3.03;;
4268;SDS011;2148;48.554;7.834;2022-11-20T10:54:47;2.77;;;2.10;;
4268;SDS011;2148;48.554;7.834;2022-11-20T11:00:06;2.97;;;2.30;;
4268;SDS011;2148;48.554;7.834;2022-11-20T11:02:52;2.80;;;2.23;;
4268;SDS011;2148;48.554;7.834;2022-11-20T11:07:45;3.13;;;2.10;;
4268;SDS011;2148;48.554;7.834;2022-11-20T11:10:36;4.13;;;1.90;;
4268;SDS011;2148;48.554;7.834;2022-11-20T11:13:26;2.80;;;1.80;;
4268;SDS011;2148;48.554;7.834;2022-11-20T11:15:53;2.80;;;1.90;;
4268;SDS011;2148;48.554;7.834;2022-11-20T11:20:50;2.10;;;1.70;;
4268;SDS011;2148;48.554;7.834;2022-11-20T11:23:26;2.03;;;1.70;;
4268;SDS011;2148;48.554;7.834;2022-11-20T11:26:00;1.97;;;1.70;;
4268;SDS011;2148;48.554;7.834;2022-11-20T11:28:27;2.17;;;1.90;;
4268;SDS011;2148;48.554;7.834;2022-11-20T11:30:53;1.70;;;1.60;;
4268;SDS011;2148;48.554;7.834;2022-11-20T11:33:20;2.80;;;1.73;;
4268;SDS011;2148;48.554;7.834;2022-11-20T11:35:48;2.73;;;1.83;;
4268;SDS011;2148;48.554;7.834;2022-11-20T11:38:16;2.40;;;1.80;;
4268;SDS011;2148;48.554;7.834;2022-11-20T11:40:43;3.57;;;2.17;;
4268;SDS011;2148;48.554;7.834;2022-11-20T11:43:22;3.17;;;2.07;;
4268;SDS011;2148;48.554;7.834;2022-11-20T11:46:29;3.50;;;1.80;;
4268;SDS011;2148;48.554;7.834;2022-11-20T11:48:57;2.10;;;1.70;;
4268;SDS011;2148;48.554;7.834;2022-11-20T11:57:23;3.70;;;1.77;;
4268;SDS011;2148;48.554;7.834;2022-11-20T12:13:16;2.73;;;2.03;;
4268;SDS011;2148;48.554;7.834;2022-11-20T12:15:47;2.53;;;1.80;;
4268;SDS011;2148;48.554;7.834;2022-11-20T12:18:17;3.03;;;2.10;;
4268;SDS011;2148;48.554;7.834;2022-11-20T12:20:45;2.43;;;2.00;;
4268;SDS011;2148;48.554;7.834;2022-11-20T12:23:28;3.00;;;2.10;;
4268;SDS011;2148;48.554;7.834;2022-11-20T12:26:24;3.70;;;2.20;;
4268;SDS011;2148;48.554;7.834;2022-11-20T12:29:12;3.73;;;2.73;;
4268;SDS011;2148;48.554;7.834;2022-11-20T12:40:26;4.47;;;1.60;;
4268;SDS011;2148;48.554;7.834;2022-11-20T12:42:55;3.50;;;1.70;;
4268;SDS011;2148;48.554;7.834;2022-11-20T12:46:21;3.13;;;1.70;;
4268;SDS011;2148;48.554;7.834;2022-11-20T12:48:38;1.70;;;1.60;;
4268;SDS011;2148;48.554;7.834;2022-11-20T12:53:51;2.93;;;2.10;;
4268;SDS011;2148;48.554;7.834;2022-11-20T13:07:05;2.03;;;1.67;;
4268;SDS011;2148;48.554;7.834;2022-11-20T13:09:32;2.37;;;1.80;;
4268;SDS011;2148;48.554;7.834;2022-11-20T13:14:32;2.23;;;1.60;;
4268;SDS011;2148;48.554;7.834;2022-11-20T13:17:07;2.17;;;1.70;;
4268;SDS011;2148;48.554;7.834;2022-11-20T13:19:36;2.07;;;1.60;;
4268;SDS011;2148;48.554;7.834;2022-11-20T13:22:02;2.70;;;1.77;;
4268;SDS011;2148;48.554;7.834;2022-11-20T13:24:29;1.20;;;1.10;;
4268;SDS011;2148;48.554;7.834;2022-11-20T13:29:33;1.50;;;1.40;;
4268;SDS011;2148;48.554;7.834;2022-11-20T13:34:29;2.67;;;2.00;;
4268;SDS011;2148;48.554;7.834;2022-11-20T13:36:55;2.50;;;1.87;;
4268;SDS011;2148;48.554;7.834;2022-11-20T13:39:28;2.37;;;1.63;;
4268;SDS011;2148;48.554;7.834;2022-11-20T13:41:59;2.20;;;1.60;;
4268;SDS011;2148;48.554;7.834;2022-11-20T13:46:57;1.70;;;1.60;;
4268;SDS011;2148;48.554;7.834;2022-11-20T13:49:27;1.87;;;1.77;;
4268;SDS011;2148;48.554;7.834;2022-11-20T13:52:04;3.33;;;1.70;;
4268;SDS011;2148;48.554;7.834;2022-11-20T14:00:11;2.40;;;1.87;;
4268;SDS011;2148;48.554;7.834;2022-11-20T14:02:38;3.13;;;1.70;;
4268;SDS011;2148;48.554;7.834;2022-11-20T14:05:04;3.07;;;1.60;;
4268;SDS011;2148;48.554;7.834;2022-11-20T14:07:37;1.90;;;1.43;;
4268;SDS011;2148;48.554;7.834;2022-11-20T14:10:04;1.70;;;1.60;;
4268;SDS011;2148;48.554;7.834;2022-11-20T14:12:31;2.27;;;1.90;;
4268;SDS011;2148;48.554;7.834;2022-11-20T14:14:57;1.90;;;1.70;;
4268;SDS011;2148;48.554;7.834;2022-11-20T14:17:29;2.90;;;1.90;;
4268;SDS011;2148;48.554;7.834;2022-11-20T14:19:58;1.73;;;1.63;;
4268;SDS011;2148;48.554;7.834;2022-11-20T14:22:28;4.13;;;1.80;;
4268;SDS011;2148;48.554;7.834;2022-11-20T14:27:29;1.90;;;1.80;;
4268;SDS011;2148;48.554;7.834;2022-11-20T14:30:00;2.13;;;1.70;;
4268;SDS011;2148;48.554;7.834;2022-11-20T14:32:26;2.80;;;1.70;;
4268;SDS011;2148;48.554;7.834;2022-11-20T14:34:53;2.13;;;1.70;;
4268;SDS011;2148;48.554;7.834;2022-11-20T14:37:23;1.60;;;1.50;;
4268;SDS011;2148;48.554;7.834;2022-11-20T14:39:53;2.20;;;1.77;;
4268;SDS011;2148;48.554;7.834;2022-11-20T14:42:23;1.93;;;1.40;;
4268;SDS011;2148;48.554;7.834;2022-11-20T14:44:51;1.90;;;1.80;;
4268;SDS011;2148;48.554;7.834;2022-11-20T14:47:22;2.00;;;1.90;;
4268;SDS011;2148;48.554;7.834;2022-11-20T14:49:50;1.70;;;1.60;;
4268;SDS011;2148;48.554;7.834;2022-11-20T14:52:18;2.33;;;1.70;;
4268;SDS011;2148;48.554;7.834;2022-11-20T14:54:46;1.97;;;1.77;;
4268;SDS011;2148;48.554;7.834;2022-11-20T14:57:26;5.57;;;1.90;;
4268;SDS011;2148;48.554;7.834;2022-11-20T15:00:06;1.73;;;1.50;;
4268;SDS011;2148;48.554;7.834;2022-11-20T15:02:52;5.87;;;1.77;;
4268;SDS011;2148;48.554;7.834;2022-11-20T15:05:19;1.90;;;1.60;;
4268;SDS011;2148;48.554;7.834;2022-11-20T15:07:47;2.93;;;1.70;;
4268;SDS011;2148;48.554;7.834;2022-11-20T15:10:24;2.07;;;1.83;;
4268;SDS011;2148;48.554;7.834;2022-11-20T15:12:51;2.37;;;1.80;;
4268;SDS011;2148;48.554;7.834;2022-11-20T15:15:25;2.53;;;1.70;;
4268;SDS011;2148;48.554;7.834;2022-11-20T15:17:56;4.40;;;1.90;;
4268;SDS011;2148;48.554;7.834;2022-11-20T15:20:21;3.67;;;1.90;;
4268;SDS011;2148;48.554;7.834;2022-11-20T15:22:50;3.33;;;1.63;;
4268;SDS011;2148;48.554;7.834;2022-11-20T15:25:16;2.10;;;1.90;;
4268;SDS011;2148;48.554;7.834;2022-11-20T15:27:42;2.67;;;2.03;;
4268;SDS011;2148;48.554;7.834;2022-11-20T15:30:16;3.77;;;1.80;;
4268;SDS011;2148;48.554;7.834;2022-11-20T15:32:43;3.87;;;1.90;;
4268;SDS011;2148;48.554;7.834;2022-11-20T15:35:09;4.60;;;1.70;;
4268;SDS011;2148;48.554;7.834;2022-11-20T15:37:34;1.87;;;1.63;;
4268;SDS011;2148;48.554;7.834;2022-11-20T15:40:00;2.47;;;1.77;;
4268;SDS011;2148;48.554;7.834;2022-11-20T15:42:25;2.93;;;1.77;;
4268;SDS011;2148;48.554;7.834;2022-11-20T15:44:51;2.93;;;2.13;;
4268;SDS011;2148;48.554;7.834;2022-11-20T15:47:16;4.00;;;2.10;;
4268;SDS011;2148;48.554;7.834;2022-11-20T15:49:42;3.77;;;1.87;;
4268;SDS011;2148;48.554;7.834;2022-11-20T15:52:08;2.63;;;1.90;;
4268;SDS011;2148;48.554;7.834;2022-11-20T15:54:34;2.60;;;2.13;;
4268;SDS011;2148;48.554;7.834;2022-11-20T15:56:59;4.77;;;2.60;;
4268;SDS011;2148;48.554;7.834;2022-11-20T15:59:25;18.00;;;11.73;;
4268;SDS011;2148;48.554;7.834;2022-11-20T16:01:50;6.33;;;4.70;;
4268;SDS011;2148;48.554;7.834;2022-11-20T16:04:16;7.27;;;5.13;;
4268;SDS011;2148;48.554;7.834;2022-11-20T16:06:42;7.07;;;4.77;;
4268;SDS011;2148;48.554;7.834;2022-11-20T16:09:07;3.03;;;2.43;;
4268;SDS011;2148;48.554;7.834;2022-11-20T16:11:32;6.63;;;5.27;;
4268;SDS011;2148;48.554;7.834;2022-11-20T16:14:01;13.23;;;9.63;;
4268;SDS011;2148;48.554;7.834;2022-11-20T16:16:45;4.30;;;3.20;;
4268;SDS011;2148;48.554;7.834;2022-11-20T16:19:11;3.87;;;2.67;;
4268;SDS011;2148;48.554;7.834;2022-11-20T16:21:37;2.67;;;2.47;;
4268;SDS011;2148;48.554;7.834;2022-11-20T16:24:05;6.70;;;2.03;;
4268;SDS011;2148;48.554;7.834;2022-11-20T16:26:31;3.60;;;2.40;;
4268;SDS011;2148;48.554;7.834;2022-11-20T16:28:58;3.00;;;2.50;;
4268;SDS011;2148;48.554;7.834;2022-11-20T16:31:24;3.27;;;2.40;;
4268;SDS011;2148;48.554;7.834;2022-11-20T16:33:52;5.03;;;2.60;;
4268;SDS011;2148;48.554;7.834;2022-11-20T16:36:19;6.80;;;6.10;;
4268;SDS011;2148;48.554;7.834;2022-11-20T16:38:46;11.07;;;10.00;;
4268;SDS011;2148;48.554;7.834;2022-11-20T16:41:11;7.83;;;5.10;;
4268;SDS011;2148;48.554;7.834;2022-11-20T16:43:46;4.30;;;2.70;;
4268;SDS011;2148;48.554;7.834;2022-11-20T16:46:13;2.57;;;2.30;;
4268;SDS011;2148;48.554;7.834;2022-11-20T16:48:39;5.17;;;3.73;;
4268;SDS011;2148;48.554;7.834;2022-11-20T16:51:07;2.93;;;2.40;;